Time;durP1;ratioP1;P1;durP2;ratioP2;P2;SDS_P1;SDS_P2;PMS_P1;PMS_P2;Temp;Humidity;BMP_temperature;BMP_pressure;BME280_temperature;BME280_humidity;BME280_pressure;Samples;Min_cycle;Max_cycle;Signal;HPM_P1;HPM_P2
2022/02/13 00:00:30;;;;;;;26.47;19.50;;;-0.70;99.90;;;;;;4982512;28;20438;-76
2022/02/13 00:02:57;;;;;;;20.17;18.07;;;-0.70;99.90;;;;;;4979111;28;20438;-76
2022/02/13 00:05:24;;;;;;;19.10;17.07;;;-0.70;99.90;;;;;;4992049;28;20485;-76
2022/02/13 00:07:52;;;;;;;26.57;20.63;;;-0.70;99.90;;;;;;4979784;28;21014;-76
2022/02/13 00:10:18;;;;;;;20.40;18.23;;;-0.80;99.90;;;;;;4977514;28;20442;-76
2022/02/13 00:12:47;;;;;;;21.23;18.73;;;-0.80;99.90;;;;;;4983531;28;20456;-76
2022/02/13 00:15:13;;;;;;;20.90;18.10;;;-0.80;99.90;;;;;;4976546;28;20532;-76
2022/02/13 00:17:40;;;;;;;26.57;20.50;;;-0.90;99.90;;;;;;4980555;28;20445;-76
2022/02/13 00:20:08;;;;;;;28.83;19.83;;;-0.90;99.90;;;;;;4989724;28;20459;-76
2022/02/13 00:22:35;;;;;;;23.67;19.90;;;-0.90;99.90;;;;;;4982094;28;20534;-76
2022/02/13 00:25:03;;;;;;;25.50;20.67;;;-0.90;99.90;;;;;;4979822;28;20477;-76
2022/02/13 00:27:30;;;;;;;26.90;21.83;;;-1.00;99.90;;;;;;4980723;28;20524;-76
2022/02/13 00:29:58;;;;;;;23.80;21.33;;;-1.00;99.90;;;;;;4979233;28;20487;-76
2022/02/13 00:32:27;;;;;;;26.30;21.33;;;-1.00;99.90;;;;;;4975626;28;20943;-76
2022/02/13 00:34:54;;;;;;;27.50;21.63;;;-1.00;99.90;;;;;;4980865;28;20600;-76
2022/02/13 00:37:20;;;;;;;22.63;19.50;;;-1.00;99.90;;;;;;4983261;28;20475;-76
2022/02/13 00:39:47;;;;;;;23.03;20.53;;;-1.10;99.90;;;;;;4979538;28;20461;-76
2022/02/13 00:42:15;;;;;;;23.33;20.53;;;-1.10;99.90;;;;;;4981946;28;20448;-77
2022/02/13 00:44:42;;;;;;;23.33;20.30;;;-1.10;99.90;;;;;;4977049;28;20489;-76
2022/02/13 00:47:12;;;;;;;22.90;19.93;;;-1.10;99.90;;;;;;4976523;28;20466;-76
2022/02/13 00:49:39;;;;;;;22.80;19.70;;;-1.10;99.90;;;;;;4975269;28;20536;-76
2022/02/13 00:52:06;;;;;;;22.33;19.43;;;-1.20;99.90;;;;;;4976748;28;20436;-76
2022/02/13 00:54:33;;;;;;;21.60;19.37;;;-1.20;99.90;;;;;;4982123;28;20520;-76
2022/02/13 00:57:01;;;;;;;22.83;19.77;;;-1.10;99.90;;;;;;4980627;28;20454;-76
2022/02/13 00:59:28;;;;;;;23.17;19.40;;;-1.20;99.90;;;;;;4980043;28;20446;-76
2022/02/13 01:01:55;;;;;;;20.37;18.30;;;-1.10;99.90;;;;;;4978487;28;20512;-76
2022/02/13 01:04:23;;;;;;;20.37;18.33;;;-1.20;99.90;;;;;;4980910;28;20489;-77
2022/02/13 01:06:50;;;;;;;20.63;18.63;;;-1.20;99.90;;;;;;4975734;28;20488;-76
2022/02/13 01:09:17;;;;;;;20.37;18.17;;;-1.20;99.90;;;;;;4980891;28;20448;-76
2022/02/13 01:11:45;;;;;;;19.63;17.80;;;-1.20;99.90;;;;;;4993463;28;20450;-77
2022/02/13 01:14:12;;;;;;;19.17;17.27;;;-1.20;99.90;;;;;;4979236;28;20484;-76
2022/02/13 01:16:39;;;;;;;20.57;18.40;;;-1.30;99.90;;;;;;4992504;28;21108;-76
2022/02/13 01:19:06;;;;;;;19.73;17.63;;;-1.20;99.90;;;;;;4976332;28;20472;-76
2022/02/13 01:21:34;;;;;;;19.43;17.57;;;-1.20;99.90;;;;;;4979907;28;20433;-76
2022/02/13 01:24:01;;;;;;;18.17;16.47;;;-1.20;99.90;;;;;;4992189;28;20475;-76
2022/02/13 01:26:28;;;;;;;18.47;16.67;;;-1.20;99.90;;;;;;4988334;28;20485;-76
2022/02/13 01:28:55;;;;;;;19.07;17.07;;;-1.30;99.90;;;;;;4989281;28;20521;-76
2022/02/13 01:31:22;;;;;;;17.93;16.10;;;-1.30;99.90;;;;;;4979935;28;20491;-76
2022/02/13 01:33:49;;;;;;;17.83;15.87;;;-1.40;99.90;;;;;;4988356;28;20454;-76
2022/02/13 01:36:16;;;;;;;19.10;16.00;;;-1.40;99.90;;;;;;4977682;28;20890;-76
2022/02/13 01:38:44;;;;;;;16.73;15.13;;;-1.50;99.90;;;;;;4980380;28;20457;-76
2022/02/13 01:41:11;;;;;;;16.67;15.10;;;-1.40;99.90;;;;;;4978255;28;20461;-76
2022/02/13 01:43:38;;;;;;;17.13;15.43;;;-1.50;99.90;;;;;;4981475;28;20446;-76
2022/02/13 01:46:05;;;;;;;16.40;14.77;;;-1.40;99.90;;;;;;4977056;28;20978;-76
2022/02/13 01:48:32;;;;;;;16.27;14.67;;;-1.40;99.90;;;;;;4979978;28;20440;-76
2022/02/13 01:50:59;;;;;;;15.90;14.50;;;-1.40;99.90;;;;;;4975166;28;20453;-76
2022/02/13 01:53:26;;;;;;;16.53;14.93;;;-1.50;99.90;;;;;;4980476;28;20449;-76
2022/02/13 01:55:55;;;;;;;17.33;15.73;;;-1.50;99.90;;;;;;4979991;28;20523;-76
2022/02/13 01:58:22;;;;;;;17.07;15.40;;;-1.50;99.90;;;;;;4993630;28;20458;-76
2022/02/13 02:00:48;;;;;;;17.73;16.00;;;-1.50;99.90;;;;;;4979815;28;20532;-76
2022/02/13 02:03:15;;;;;;;17.77;15.97;;;-1.50;99.90;;;;;;4990283;28;20458;-76
2022/02/13 02:05:44;;;;;;;17.03;14.93;;;-1.50;99.90;;;;;;4980389;28;20485;-76
2022/02/13 02:08:11;;;;;;;19.20;17.07;;;-1.50;99.90;;;;;;4995455;28;20448;-76
2022/02/13 02:10:38;;;;;;;17.53;15.63;;;-1.50;99.90;;;;;;4976365;28;20449;-76
2022/02/13 02:13:06;;;;;;;17.93;16.07;;;-1.50;99.90;;;;;;4977008;28;20934;-76
2022/02/13 02:15:34;;;;;;;18.23;16.40;;;-1.50;99.90;;;;;;4976884;28;20468;-76
2022/02/13 02:18:01;;;;;;;18.37;16.37;;;-1.50;99.90;;;;;;4976282;28;20468;-76
2022/02/13 02:20:31;;;;;;;18.00;16.20;;;-1.50;99.90;;;;;;4978851;28;20935;-76
2022/02/13 02:23:00;;;;;;;19.27;17.23;;;-1.50;99.90;;;;;;4979817;28;20441;-76
2022/02/13 02:25:27;;;;;;;17.43;15.67;;;-1.50;99.90;;;;;;4980463;28;20480;-76
2022/02/13 02:27:53;;;;;;;17.63;16.13;;;-1.50;99.90;;;;;;4976622;28;21125;-76
2022/02/13 02:30:20;;;;;;;18.90;16.97;;;-1.50;99.90;;;;;;4991971;28;20445;-76
2022/02/13 02:32:48;;;;;;;17.83;15.93;;;-1.40;99.90;;;;;;4975959;28;20443;-76
2022/02/13 02:35:14;;;;;;;18.20;16.37;;;-1.40;99.90;;;;;;4974347;28;20457;-76
2022/02/13 02:37:41;;;;;;;18.30;16.60;;;-1.40;99.90;;;;;;4978036;28;20441;-76
2022/02/13 02:40:11;;;;;;;17.20;15.50;;;-1.40;99.90;;;;;;4977847;28;20449;-76
2022/02/13 02:42:37;;;;;;;17.47;15.70;;;-1.40;99.90;;;;;;4979158;28;20488;-76
2022/02/13 02:45:05;;;;;;;19.03;17.13;;;-1.40;99.90;;;;;;4976181;28;20481;-76
2022/02/13 02:47:32;;;;;;;18.10;16.33;;;-1.40;99.90;;;;;;4972516;28;20433;-76
2022/02/13 02:49:59;;;;;;;18.40;16.50;;;-1.40;99.90;;;;;;4968916;28;20429;-76
2022/02/13 02:52:26;;;;;;;18.10;16.23;;;-1.40;99.90;;;;;;4976800;28;20512;-76
2022/02/13 02:54:52;;;;;;;18.47;16.37;;;-1.50;99.90;;;;;;4979403;28;20520;-76
2022/02/13 02:57:21;;;;;;;17.90;16.07;;;-1.40;99.90;;;;;;4994265;28;20899;-76
2022/02/13 02:59:48;;;;;;;18.17;16.37;;;-1.50;99.90;;;;;;4975872;28;20441;-76
2022/02/13 03:02:14;;;;;;;17.17;15.47;;;-1.50;99.90;;;;;;4976094;28;20444;-76
2022/02/13 03:04:41;;;;;;;17.23;15.60;;;-1.40;99.90;;;;;;4974582;28;20794;-76
2022/02/13 03:07:08;;;;;;;19.10;17.10;;;-1.40;99.90;;;;;;4973644;28;20457;-76
2022/02/13 03:09:35;;;;;;;18.87;16.83;;;-1.40;99.90;;;;;;4979089;28;20464;-76
2022/02/13 03:12:03;;;;;;;18.27;16.43;;;-1.40;99.90;;;;;;4979313;28;20785;-76
2022/02/13 03:14:31;;;;;;;17.20;15.50;;;-1.40;99.90;;;;;;4970988;28;20510;-76
2022/02/13 03:16:58;;;;;;;18.30;16.40;;;-1.40;99.90;;;;;;4976215;28;20442;-76
2022/02/13 03:19:24;;;;;;;17.73;15.87;;;-1.40;99.90;;;;;;4992248;28;20458;-77
2022/02/13 03:21:51;;;;;;;17.30;15.60;;;-1.40;99.90;;;;;;4992130;28;20487;-76
2022/02/13 03:24:19;;;;;;;18.30;16.40;;;-1.40;99.90;;;;;;4973991;28;20457;-76
2022/02/13 03:26:46;;;;;;;18.23;16.37;;;-1.40;99.90;;;;;;4977716;28;20547;-76
2022/02/13 03:29:14;;;;;;;16.80;15.20;;;-1.50;99.90;;;;;;4972317;28;20441;-76
2022/02/13 03:31:42;;;;;;;16.70;15.00;;;-1.40;99.90;;;;;;4980037;28;20442;-76
2022/02/13 03:34:09;;;;;;;17.20;15.50;;;-1.40;99.90;;;;;;4976044;28;20885;-76
2022/02/13 03:36:36;;;;;;;16.57;15.17;;;-1.40;99.90;;;;;;4979626;28;20453;-76
2022/02/13 03:39:04;;;;;;;16.80;15.30;;;-1.40;99.90;;;;;;4980223;28;20956;-76
2022/02/13 03:41:31;;;;;;;16.80;15.30;;;-1.40;99.90;;;;;;4975531;28;20528;-76
2022/02/13 03:43:57;;;;;;;17.13;15.43;;;-1.40;99.90;;;;;;4975166;28;20500;-76
2022/02/13 03:46:25;;;;;;;16.60;15.07;;;-1.30;99.90;;;;;;4980858;28;20904;-76
2022/02/13 03:48:53;;;;;;;17.63;15.80;;;-1.30;99.90;;;;;;4979148;28;20488;-76
2022/02/13 03:51:20;;;;;;;17.50;15.70;;;-1.30;99.90;;;;;;4979830;28;20930;-76
2022/02/13 03:53:47;;;;;;;17.47;15.13;;;-1.30;99.90;;;;;;4980720;28;20793;-76
2022/02/13 03:56:13;;;;;;;16.87;15.30;;;-1.40;99.90;;;;;;4996874;28;20453;-76
2022/02/13 03:58:40;;;;;;;17.63;15.83;;;-1.40;99.90;;;;;;4976129;28;20454;-76
2022/02/13 04:01:07;;;;;;;17.87;15.60;;;-1.40;99.90;;;;;;4976279;28;20449;-76
2022/02/13 04:03:34;;;;;;;16.97;15.37;;;-1.30;99.90;;;;;;4973060;28;20453;-76
2022/02/13 04:06:03;;;;;;;15.37;13.87;;;-1.30;99.90;;;;;;4966847;28;20833;-76
2022/02/13 04:08:30;;;;;;;16.23;14.73;;;-1.30;99.90;;;;;;4965598;28;20520;-76
2022/02/13 04:10:58;;;;;;;17.27;15.53;;;-1.30;99.90;;;;;;4974750;28;20453;-76
2022/02/13 04:13:27;;;;;;;17.60;16.00;;;-1.30;99.90;;;;;;4980745;28;20954;-76
2022/02/13 04:15:55;;;;;;;17.10;15.50;;;-1.30;99.90;;;;;;5057084;22;20883;-75
2022/02/13 04:18:23;;;;;;;16.83;15.00;;;-1.30;99.90;;;;;;5018797;28;20456;-75
2022/02/13 04:20:50;;;;;;;17.23;15.53;;;-1.20;99.90;;;;;;5019180;28;20791;-74
2022/02/13 04:23:18;;;;;;;18.23;16.37;;;-1.20;99.90;;;;;;5055549;28;20483;-76
2022/02/13 04:25:45;;;;;;;17.07;15.47;;;-1.20;99.90;;;;;;5026243;28;20479;-76
2022/02/13 04:28:12;;;;;;;16.07;14.47;;;-1.20;99.90;;;;;;5010553;28;20452;-75
2022/02/13 04:30:39;;;;;;;16.77;15.17;;;-1.20;99.90;;;;;;5012246;28;20834;-75
2022/02/13 04:33:05;;;;;;;16.13;14.53;;;-1.20;99.90;;;;;;5017901;28;20459;-75
2022/02/13 04:35:33;;;;;;;16.77;15.13;;;-1.20;99.90;;;;;;5021488;28;20458;-75
2022/02/13 04:38:00;;;;;;;17.20;15.53;;;-1.30;99.90;;;;;;5022630;28;20478;-75
2022/02/13 04:40:28;;;;;;;17.93;16.17;;;-1.30;99.90;;;;;;5022093;28;20463;-75
2022/02/13 04:42:55;;;;;;;16.33;14.90;;;-1.30;99.90;;;;;;5014900;28;20960;-75
2022/02/13 04:45:22;;;;;;;17.53;15.93;;;-1.40;99.90;;;;;;5022119;28;20476;-74
2022/02/13 04:47:49;;;;;;;17.30;15.60;;;-1.40;99.90;;;;;;5016839;28;21020;-75
2022/02/13 04:50:21;;;;;;;17.27;15.47;;;-1.40;99.90;;;;;;5021061;28;20439;-75
2022/02/13 04:52:49;;;;;;;16.17;14.73;;;-1.40;99.90;;;;;;5014738;28;20453;-74
2022/02/13 04:55:17;;;;;;;15.77;14.17;;;-1.50;99.90;;;;;;5021072;28;20482;-76
2022/02/13 04:57:46;;;;;;;16.90;15.33;;;-1.50;99.90;;;;;;5016470;28;20448;-77
2022/02/13 05:00:15;;;;;;;16.83;15.23;;;-1.50;99.90;;;;;;5020976;28;20426;-75
2022/02/13 05:02:42;;;;;;;17.33;15.63;;;-1.50;99.90;;;;;;5021069;28;20527;-75
2022/02/13 05:05:11;;;;;;;15.13;13.73;;;-1.50;99.90;;;;;;5023081;28;20471;-75
2022/02/13 05:07:38;;;;;;;15.53;14.13;;;-1.50;99.90;;;;;;5013146;28;20891;-76
2022/02/13 05:10:06;;;;;;;16.37;14.77;;;-1.50;99.90;;;;;;5019977;28;20812;-77
2022/02/13 05:12:33;;;;;;;17.03;15.33;;;-1.50;99.90;;;;;;5017769;28;20458;-77
2022/02/13 05:15:05;;;;;;;15.70;14.30;;;-1.50;99.90;;;;;;5027932;28;20474;-76
2022/02/13 05:17:35;;;;;;;16.30;14.63;;;-1.40;99.90;;;;;;5015267;28;20859;-75
2022/02/13 05:20:02;;;;;;;17.07;15.37;;;-1.40;99.90;;;;;;5009318;28;20987;-76
2022/02/13 05:22:29;;;;;;;16.97;15.20;;;-1.50;99.90;;;;;;5014846;28;20832;-77
2022/02/13 05:24:56;;;;;;;16.57;14.93;;;-1.40;99.90;;;;;;5027157;28;20479;-80
2022/02/13 05:27:23;;;;;;;16.03;14.53;;;-1.40;99.90;;;;;;5008074;28;20475;-75
2022/02/13 05:29:50;;;;;;;17.27;15.63;;;-1.50;99.90;;;;;;5011688;28;20447;-76
2022/02/13 05:32:18;;;;;;;15.00;13.70;;;-1.60;99.90;;;;;;5018693;28;20944;-76
2022/02/13 05:34:45;;;;;;;17.73;15.60;;;-1.60;99.90;;;;;;5019488;28;20463;-77
2022/02/13 05:37:12;;;;;;;16.20;14.70;;;-1.70;99.90;;;;;;5017263;28;20506;-76
2022/02/13 05:39:38;;;;;;;15.90;14.40;;;-1.70;99.90;;;;;;5018771;28;20455;-76
2022/02/13 05:42:05;;;;;;;16.57;15.07;;;-1.70;99.90;;;;;;5020719;28;20487;-74
2022/02/13 05:44:33;;;;;;;15.77;14.27;;;-1.70;99.90;;;;;;5027666;28;20451;-76
2022/02/13 05:46:59;;;;;;;16.17;14.57;;;-1.70;99.90;;;;;;5020151;28;20483;-75
2022/02/13 05:49:28;;;;;;;16.67;15.10;;;-1.70;99.90;;;;;;5026803;28;20494;-75
2022/02/13 05:51:54;;;;;;;16.00;14.60;;;-1.70;99.90;;;;;;5020393;28;20486;-75
2022/02/13 05:54:21;;;;;;;16.83;14.80;;;-1.70;99.90;;;;;;5023974;28;20482;-75
2022/02/13 05:56:48;;;;;;;17.17;15.53;;;-1.70;99.90;;;;;;5017787;28;20431;-75
2022/02/13 05:59:16;;;;;;;17.93;16.33;;;-1.60;99.90;;;;;;5015762;28;20462;-76
2022/02/13 06:01:43;;;;;;;17.07;15.57;;;-1.50;99.90;;;;;;5018670;28;20474;-78
2022/02/13 06:04:09;;;;;;;17.77;15.87;;;-1.50;99.90;;;;;;5015760;28;20815;-79
2022/02/13 06:06:38;;;;;;;17.20;15.27;;;-1.40;99.90;;;;;;5009194;28;20844;-76
2022/02/13 06:09:05;;;;;;;17.20;15.60;;;-1.40;99.90;;;;;;5013645;28;20849;-76
2022/02/13 06:11:31;;;;;;;16.13;14.70;;;-1.40;99.90;;;;;;5017629;28;20457;-76
2022/02/13 06:13:58;;;;;;;17.37;15.57;;;-1.40;99.90;;;;;;5016670;28;20448;-75
2022/02/13 06:16:25;;;;;;;17.80;16.00;;;-1.40;99.90;;;;;;5019129;28;20874;-75
2022/02/13 06:18:52;;;;;;;17.27;15.57;;;-1.50;99.90;;;;;;5020754;28;20912;-77
2022/02/13 06:21:21;;;;;;;16.50;14.93;;;-1.50;99.90;;;;;;5015630;28;20439;-76
2022/02/13 06:23:49;;;;;;;18.10;16.43;;;-1.50;99.90;;;;;;5021731;28;20451;-75
2022/02/13 06:26:16;;;;;;;18.00;16.20;;;-1.50;99.90;;;;;;5021547;28;20482;-75
2022/02/13 06:28:43;;;;;;;16.50;15.00;;;-1.30;99.90;;;;;;5019840;28;20869;-74
2022/02/13 06:31:10;;;;;;;16.70;15.00;;;-1.30;99.90;;;;;;5017740;28;20510;-76
2022/02/13 06:33:36;;;;;;;17.97;15.80;;;-1.30;99.90;;;;;;5023878;28;20443;-76
2022/02/13 06:36:03;;;;;;;16.77;15.27;;;-1.30;99.90;;;;;;5026952;28;21036;-76
2022/02/13 06:38:30;;;;;;;16.73;15.13;;;-1.30;99.90;;;;;;5019483;28;20447;-75
2022/02/13 06:40:59;;;;;;;17.40;15.70;;;-1.30;99.90;;;;;;5019967;28;20439;-76
2022/02/13 06:43:25;;;;;;;16.63;15.03;;;-1.30;99.90;;;;;;5003689;28;20470;-76
2022/02/13 06:45:52;;;;;;;17.60;15.90;;;-1.30;99.90;;;;;;5004332;28;21011;-76
2022/02/13 06:48:19;;;;;;;17.63;15.93;;;-1.30;99.90;;;;;;5009941;28;20451;-76
2022/02/13 06:50:46;;;;;;;16.73;15.13;;;-1.20;99.90;;;;;;5013263;28;20456;-76
2022/02/13 06:53:13;;;;;;;17.60;15.83;;;-1.20;99.90;;;;;;5013782;28;20436;-76
2022/02/13 06:55:40;;;;;;;17.97;16.17;;;-1.10;99.90;;;;;;5013036;28;20491;-77
2022/02/13 06:58:11;;;;;;;16.83;15.27;;;-1.00;99.90;;;;;;5009460;28;20447;-77
2022/02/13 07:00:40;;;;;;;16.90;15.23;;;-1.00;99.90;;;;;;5005598;28;20940;-76
2022/02/13 07:03:07;;;;;;;16.60;15.17;;;-1.00;99.90;;;;;;5011320;28;20800;-77
2022/02/13 07:05:34;;;;;;;18.40;15.47;;;-1.00;99.90;;;;;;5002636;28;20851;-78
2022/02/13 07:08:01;;;;;;;17.37;15.67;;;-0.90;99.90;;;;;;5007458;28;20475;-76
2022/02/13 07:10:28;;;;;;;17.13;15.63;;;-0.90;99.90;;;;;;5014575;28;20450;-76
2022/02/13 07:12:54;;;;;;;17.30;15.67;;;-0.80;99.90;;;;;;5019054;28;20443;-76
2022/02/13 07:15:23;;;;;;;16.60;15.00;;;-0.80;99.90;;;;;;5016580;28;20845;-77
2022/02/13 07:17:50;;;;;;;18.43;16.73;;;-0.70;99.90;;;;;;5006982;28;20515;-75
2022/02/13 07:20:16;;;;;;;19.80;17.90;;;-0.70;99.90;;;;;;5013084;28;20444;-76
2022/02/13 07:22:43;;;;;;;18.77;17.13;;;-0.60;99.90;;;;;;5014235;28;20859;-76
2022/02/13 07:25:10;;;;;;;18.07;16.40;;;-0.50;99.90;;;;;;5013496;28;20471;-77
2022/02/13 07:27:38;;;;;;;17.57;15.87;;;-0.50;99.90;;;;;;5013102;28;20486;-76
2022/02/13 07:30:06;;;;;;;18.13;16.20;;;-0.40;99.90;;;;;;5014593;28;20789;-76
2022/02/13 07:32:35;;;;;;;16.40;14.83;;;-0.40;99.90;;;;;;5013164;28;20824;-75
2022/02/13 07:35:02;;;;;;;17.17;15.47;;;-0.30;99.90;;;;;;5016276;28;20479;-76
2022/02/13 07:37:28;;;;;;;17.17;15.63;;;-0.20;99.90;;;;;;5007558;28;20509;-76
2022/02/13 07:39:56;;;;;;;18.83;16.83;;;-0.10;99.90;;;;;;5013194;28;20448;-76
2022/02/13 07:42:23;;;;;;;23.17;19.53;;;0.10;99.90;;;;;;5014241;28;20467;-76
2022/02/13 07:44:50;;;;;;;31.40;23.27;;;0.30;99.90;;;;;;5014139;28;20464;-76
2022/02/13 07:47:17;;;;;;;25.43;21.63;;;0.60;99.90;;;;;;5014988;28;20550;-77
2022/02/13 07:49:45;;;;;;;21.67;19.40;;;1.00;99.90;;;;;;5014721;28;20445;-75
2022/02/13 07:52:12;;;;;;;20.10;18.10;;;1.40;99.90;;;;;;5011206;28;20448;-75
2022/02/13 07:54:40;;;;;;;18.90;17.07;;;1.80;99.90;;;;;;5012929;28;20493;-76
2022/02/13 07:57:07;;;;;;;18.20;16.60;;;2.10;99.90;;;;;;5013494;28;20829;-77
2022/02/13 07:59:35;;;;;;;18.23;16.70;;;2.40;99.90;;;;;;5022065;28;20440;-76
2022/02/13 08:02:02;;;;;;;16.00;14.67;;;2.90;99.90;;;;;;5016719;28;20956;-76
2022/02/13 08:04:28;;;;;;;16.43;15.07;;;3.20;99.90;;;;;;5010941;28;20477;-76
2022/02/13 08:06:57;;;;;;;16.53;14.97;;;3.40;99.90;;;;;;5012981;28;20494;-76
2022/02/13 08:09:23;;;;;;;16.73;15.03;;;3.50;99.90;;;;;;5014071;28;20559;-76
2022/02/13 08:11:50;;;;;;;14.90;13.67;;;3.60;99.90;;;;;;5019724;28;20442;-76
2022/02/13 08:14:17;;;;;;;14.93;13.67;;;3.80;99.90;;;;;;5013039;28;20427;-76
2022/02/13 08:16:44;;;;;;;15.70;14.33;;;4.00;99.90;;;;;;5013513;28;20200;-76
2022/02/13 08:19:13;;;;;;;17.10;15.40;;;4.30;99.90;;;;;;5014980;28;20662;-76
2022/02/13 08:21:39;;;;;;;15.80;14.50;;;4.50;99.90;;;;;;5017979;28;20222;-76
2022/02/13 08:24:08;;;;;;;16.07;14.57;;;4.80;99.90;;;;;;5024718;28;20204;-76
2022/02/13 08:26:35;;;;;;;16.83;15.23;;;5.20;99.90;;;;;;5017335;28;20200;-77
2022/02/13 08:29:01;;;;;;;16.77;15.27;;;5.70;99.90;;;;;;5013995;28;20250;-76
2022/02/13 08:31:29;;;;;;;15.60;14.20;;;6.10;99.90;;;;;;5013424;28;20713;-76
2022/02/13 08:33:56;;;;;;;10.83;8.07;;;6.50;99.90;;;;;;5014267;28;20204;-78
2022/02/13 08:36:23;;;;;;;14.57;13.03;;;6.70;99.90;;;;;;5023159;28;20225;-77
2022/02/13 08:38:51;;;;;;;15.43;14.03;;;7.20;99.90;;;;;;5012594;28;20288;-77
2022/02/13 08:41:19;;;;;;;15.30;13.80;;;7.20;99.90;;;;;;5023618;28;20197;-77
2022/02/13 08:43:48;;;;;;;15.70;14.40;;;7.40;99.90;;;;;;5020541;28;20199;-77
2022/02/13 08:46:18;;;;;;;16.27;14.87;;;7.60;99.90;;;;;;5017615;28;20220;-77
2022/02/13 08:48:45;;;;;;;15.07;13.70;;;7.90;99.90;;;;;;5019710;28;20234;-77
2022/02/13 08:51:12;;;;;;;15.57;14.17;;;8.00;99.90;;;;;;5019850;28;20204;-77
2022/02/13 08:53:39;;;;;;;12.77;11.57;;;8.10;99.90;;;;;;5019684;28;20276;-77
2022/02/13 08:56:06;;;;;;;15.60;14.10;;;8.10;99.90;;;;;;5015359;28;20269;-77
2022/02/13 08:58:34;;;;;;;14.83;13.43;;;7.90;99.90;;;;;;5007820;28;20238;-77
2022/02/13 09:01:01;;;;;;;16.40;14.80;;;7.80;99.90;;;;;;5018400;28;20213;-77
2022/02/13 09:03:28;;;;;;;15.07;13.57;;;8.00;99.90;;;;;;5015266;28;20203;-76
2022/02/13 09:05:55;;;;;;;15.77;14.30;;;8.00;99.90;;;;;;5014083;28;20716;-78
2022/02/13 09:08:22;;;;;;;16.67;15.17;;;8.00;99.90;;;;;;5011645;28;20599;-79
2022/02/13 09:10:49;;;;;;;15.73;14.20;;;8.20;99.90;;;;;;5013228;28;20215;-81
2022/02/13 09:13:18;;;;;;;11.53;10.37;;;8.20;99.90;;;;;;5021954;28;20206;-78
2022/02/13 09:15:46;;;;;;;13.20;10.53;;;8.10;99.90;;;;;;5015881;28;20224;-77
2022/02/13 09:18:14;;;;;;;11.37;9.93;;;8.20;99.90;;;;;;5019858;28;20220;-78
2022/02/13 09:20:44;;;;;;;14.40;13.00;;;8.50;99.90;;;;;;5018950;28;20201;-79
2022/02/13 09:23:13;;;;;;;15.07;13.77;;;8.50;99.90;;;;;;5014216;28;20267;-78
2022/02/13 09:25:40;;;;;;;17.77;16.33;;;8.60;99.90;;;;;;5012933;28;20220;-77
2022/02/13 09:28:07;;;;;;;14.83;13.53;;;8.70;99.90;;;;;;5020059;28;20222;-78
2022/02/13 09:30:34;;;;;;;14.27;13.13;;;8.80;99.90;;;;;;5013598;28;20223;-77
2022/02/13 09:33:03;;;;;;;14.33;13.13;;;9.00;99.90;;;;;;5017422;28;20196;-76
2022/02/13 09:35:30;;;;;;;13.77;12.67;;;9.20;99.90;;;;;;5016941;28;20224;-77
2022/02/13 09:37:57;;;;;;;9.23;8.23;;;9.30;99.90;;;;;;5010998;28;20254;-76
2022/02/13 09:40:32;;;;;;;10.27;9.00;;;9.20;99.90;;;;;;5009570;28;20202;-76
2022/02/13 09:43:00;;;;;;;11.77;9.07;;;9.20;99.90;;;;;;5012284;28;20195;-76
2022/02/13 09:45:29;;;;;;;9.77;8.37;;;9.20;99.90;;;;;;5010952;28;20217;-77
2022/02/13 09:47:55;;;;;;;15.10;13.60;;;9.10;99.90;;;;;;5011084;28;20301;-76
2022/02/13 09:50:24;;;;;;;12.63;9.13;;;9.10;99.90;;;;;;5012372;28;20200;-77
2022/02/13 09:52:54;;;;;;;13.23;8.53;;;9.20;99.90;;;;;;5011027;28;20579;-76
2022/02/13 09:55:21;;;;;;;11.30;7.90;;;9.10;99.90;;;;;;5011324;28;20645;-77
2022/02/13 09:58:04;;;;;;;10.77;7.13;;;9.20;99.90;;;;;;5012032;28;20220;-78
2022/02/13 10:00:52;;;;;;;9.27;7.23;;;9.30;99.90;;;;;;5010300;28;20585;-77
2022/02/13 10:03:22;;;;;;;11.10;8.33;;;9.20;99.90;;;;;;5009738;28;20291;-77
2022/02/13 10:05:51;;;;;;;11.33;10.00;;;9.00;99.90;;;;;;5010604;28;20227;-78
2022/02/13 10:08:29;;;;;;;12.70;10.97;;;8.80;99.90;;;;;;5008820;28;20240;-78
2022/02/13 10:11:11;;;;;;;10.30;6.63;;;8.80;99.90;;;;;;5011526;28;20227;-77
2022/02/13 10:13:47;;;;;;;10.77;8.40;;;8.70;99.90;;;;;;5011341;28;20196;-77
2022/02/13 10:16:19;;;;;;;9.67;8.20;;;8.60;99.90;;;;;;5037937;23;20220;-77
2022/02/13 10:18:51;;;;;;;8.03;6.67;;;8.60;99.90;;;;;;5024031;28;20200;-77
2022/02/13 10:21:38;;;;;;;10.43;8.73;;;8.60;99.90;;;;;;5026330;28;20671;-77
2022/02/13 10:24:22;;;;;;;12.93;11.93;;;8.50;99.90;;;;;;5029969;28;20699;-77
2022/02/13 10:26:51;;;;;;;12.17;11.17;;;8.50;99.90;;;;;;5024148;28;20223;-77
2022/02/13 10:29:22;;;;;;;12.20;11.00;;;8.40;99.90;;;;;;5014619;28;20216;-78
2022/02/13 10:31:49;;;;;;;11.93;10.93;;;8.50;99.90;;;;;;5011602;28;20208;-77
2022/02/13 10:34:16;;;;;;;12.57;11.47;;;8.50;99.90;;;;;;5023325;28;20200;-78
2022/02/13 10:36:46;;;;;;;12.40;11.30;;;8.40;99.90;;;;;;5022956;28;20216;-77
2022/02/13 10:39:20;;;;;;;12.60;11.57;;;8.30;99.90;;;;;;5024576;28;20661;-77
2022/02/13 10:41:48;;;;;;;12.43;11.30;;;8.40;99.90;;;;;;5014397;28;20206;-77
2022/02/13 10:44:16;;;;;;;15.10;12.17;;;8.40;99.90;;;;;;5026962;28;20195;-78
2022/02/13 10:46:44;;;;;;;12.37;11.37;;;8.40;99.90;;;;;;5019611;28;20678;-78
2022/02/13 10:49:13;;;;;;;12.23;11.13;;;8.30;99.90;;;;;;5017066;28;20740;-78
2022/02/13 10:51:40;;;;;;;11.93;10.93;;;8.30;99.90;;;;;;5030242;28;20201;-78
2022/02/13 10:54:08;;;;;;;14.80;11.90;;;8.30;99.90;;;;;;5032640;28;20200;-77
2022/02/13 10:56:37;;;;;;;12.50;11.40;;;8.40;99.90;;;;;;5027976;28;20230;-78
2022/02/13 10:59:04;;;;;;;12.00;10.83;;;8.40;99.90;;;;;;5021209;28;20657;-79
2022/02/13 11:01:32;;;;;;;11.33;10.33;;;8.50;99.90;;;;;;5029565;28;20207;-79
2022/02/13 11:04:03;;;;;;;12.30;11.10;;;8.50;99.90;;;;;;5028163;28;20664;-77
2022/02/13 11:06:32;;;;;;;11.63;10.63;;;8.50;99.90;;;;;;5026283;28;20303;-79
2022/02/13 11:09:04;;;;;;;11.53;10.63;;;8.60;99.90;;;;;;5025537;28;20227;-77
2022/02/13 11:11:33;;;;;;;10.63;9.80;;;8.60;99.90;;;;;;5036320;28;20203;-78
2022/02/13 11:14:00;;;;;;;11.83;10.80;;;8.70;99.90;;;;;;5033691;28;20199;-77
2022/02/13 11:16:32;;;;;;;11.30;10.40;;;8.80;99.90;;;;;;5016503;28;20216;-78
2022/02/13 11:19:02;;;;;;;12.13;10.97;;;8.90;99.90;;;;;;5030377;28;20224;-78
2022/02/13 11:21:32;;;;;;;12.37;11.27;;;9.00;99.90;;;;;;5029700;28;20217;-79
2022/02/13 11:24:00;;;;;;;11.67;10.57;;;9.10;99.90;;;;;;5026389;28;20808;-77
2022/02/13 11:26:41;;;;;;;11.07;10.17;;;9.10;99.90;;;;;;5025011;28;20223;-78
2022/02/13 11:29:09;;;;;;;11.23;10.13;;;9.20;99.90;;;;;;5022013;28;20196;-80
2022/02/13 11:31:45;;;;;;;11.20;10.30;;;9.20;99.90;;;;;;5022135;28;20203;-78
2022/02/13 11:34:15;;;;;;;11.13;10.23;;;9.30;99.90;;;;;;5030430;28;20195;-78
2022/02/13 11:36:47;;;;;;;11.97;10.87;;;9.30;99.90;;;;;;5023794;28;20220;-77
2022/02/13 11:39:36;;;;;;;11.93;10.93;;;9.40;99.90;;;;;;5021565;28;20599;-78
2022/02/13 11:42:10;;;;;;;11.27;10.27;;;9.50;99.90;;;;;;5025048;28;20188;-79
2022/02/13 11:44:51;;;;;;;10.77;9.97;;;9.50;99.90;;;;;;5029974;28;20665;-78
2022/02/13 11:47:20;;;;;;;10.67;9.87;;;9.60;99.90;;;;;;5026435;28;20201;-79
2022/02/13 11:50:27;;;;;;;10.73;9.90;;;9.60;99.90;;;;;;5025553;28;20613;-81
2022/02/13 11:53:05;;;;;;;11.00;9.80;;;9.70;99.90;;;;;;5027146;28;20674;-79
2022/02/13 11:55:35;;;;;;;10.90;9.90;;;9.80;99.90;;;;;;5015438;28;20223;-78
2022/02/13 11:58:08;;;;;;;13.40;12.00;;;9.80;99.90;;;;;;5025744;28;20629;-78
2022/02/13 12:00:43;;;;;;;12.30;11.20;;;9.90;99.90;;;;;;5012281;28;20200;-79
2022/02/13 12:03:27;;;;;;;12.83;10.77;;;9.90;99.90;;;;;;5010406;28;20691;-76
2022/02/13 12:06:27;;;;;;;10.93;9.90;;;10.00;99.90;;;;;;5013349;28;20737;-78
2022/02/13 12:08:57;;;;;;;11.17;10.27;;;10.00;99.90;;;;;;5023167;28;20563;-79
2022/02/13 12:11:30;;;;;;;10.20;9.30;;;10.00;99.90;;;;;;5029955;28;20226;-78
2022/02/13 12:14:17;;;;;;;11.63;10.37;;;10.10;99.90;;;;;;5022318;28;20208;-78
2022/02/13 12:16:56;;;;;;;13.90;10.53;;;10.10;99.90;;;;;;5017440;28;20764;-78
2022/02/13 12:19:31;;;;;;;11.07;9.97;;;10.20;99.90;;;;;;5009993;28;20607;-78
2022/02/13 12:22:09;;;;;;;10.50;9.40;;;10.20;99.90;;;;;;5023044;28;20219;-78
2022/02/13 12:24:40;;;;;;;10.70;9.70;;;10.20;99.90;;;;;;5029305;28;20608;-78
2022/02/13 12:27:07;;;;;;;9.90;9.00;;;10.20;99.90;;;;;;5018328;28;20676;-77
2022/02/13 12:29:35;;;;;;;11.90;10.67;;;10.30;99.90;;;;;;5013145;28;20203;-77
2022/02/13 12:32:06;;;;;;;16.30;14.00;;;10.40;99.90;;;;;;5023740;28;20232;-76
2022/02/13 12:34:56;;;;;;;17.13;14.13;;;10.40;99.90;;;;;;5016800;28;20204;-77
2022/02/13 12:37:38;;;;;;;17.63;14.33;;;10.50;99.90;;;;;;5013366;28;20194;-79